DENBG EDWN-EDDG
Flight info
| Callsign | DENBG |
|---|---|
| Flight time | 0h 11m |
| Altitude | 3000 |
| Route | IBAGU DCT OSN/N0111F020 |
| Aircraft | C172/L-SFG/C |
Departure
| Time | 2026-04-21 14:44 |
|---|---|
| Airport | Flugplatz Nordhorn-Lingen (EDWN) |
Arrival
| Time | 2026-04-21 14:55 |
|---|---|
| Airport | Münster Osnabrück Airport (EDDG) |
| Time | Latitude | Longitude | Altitude | Speed | Heading |
|---|---|---|---|---|---|
| 2026-04-21 14:44 | 52.40093 | 7.19640 | 2391 ft | 132 kts | 210° |
| 2026-04-21 14:44 | 52.39280 | 7.19077 | 2786 ft | 123 kts | 211° |
| 2026-04-21 14:44 | 52.38607 | 7.18262 | 3095 ft | 114 kts | 217° |
| 2026-04-21 14:45 | 52.37923 | 7.17481 | 3108 ft | 132 kts | 212° |
| 2026-04-21 14:45 | 52.37084 | 7.16874 | 3106 ft | 133 kts | 195° |
| 2026-04-21 14:45 | 52.36176 | 7.16728 | 3239 ft | 130 kts | 179° |
| 2026-04-21 14:45 | 52.35259 | 7.16604 | 3343 ft | 133 kts | 186° |
| 2026-04-21 14:46 | 52.34418 | 7.16075 | 3559 ft | 134 kts | 219° |
| 2026-04-21 14:46 | 52.33927 | 7.14803 | 3431 ft | 139 kts | 240° |
| 2026-04-21 14:46 | 52.33185 | 7.14125 | 3198 ft | 138 kts | 159° |
| 2026-04-21 14:46 | 52.32273 | 7.14519 | 3114 ft | 136 kts | 172° |
| 2026-04-21 14:47 | 52.25739 | 7.14028 | 2211 ft | 138 kts | 183° |
| 2026-04-21 14:47 | 52.21215 | 7.18774 | 2042 ft | 3403 kts | 144° |
| 2026-04-21 14:47 | 52.14803 | 7.30237 | 2198 ft | 114 kts | 128° |
| 2026-04-21 14:47 | 52.13383 | 7.39568 | 2100 ft | 114 kts | 117° |
| 2026-04-21 14:48 | 52.11982 | 7.46079 | 2093 ft | 118 kts | 125° |
| 2026-04-21 14:48 | 52.10811 | 7.50851 | 1981 ft | 3412 kts | 133° |
| 2026-04-21 14:48 | 52.10067 | 7.54481 | 1846 ft | 113 kts | 103° |
| 2026-04-21 14:48 | 52.09986 | 7.55631 | 1572 ft | 89 kts | 84° |
| 2026-04-21 14:49 | 52.10185 | 7.56500 | 1338 ft | 78 kts | 64° |
| 2026-04-21 14:49 | 52.10457 | 7.57302 | 1209 ft | 86 kts | 68° |
| 2026-04-21 14:49 | 52.10708 | 7.58169 | 1219 ft | 85 kts | 69° |
| 2026-04-21 14:49 | 52.10956 | 7.59062 | 1105 ft | 87 kts | 66° |
| 2026-04-21 14:50 | 52.11119 | 7.59669 | 1058 ft | 90 kts | 68° |
| 2026-04-21 14:50 | 52.11496 | 7.60974 | 1042 ft | 99 kts | 70° |
| 2026-04-21 14:50 | 52.11764 | 7.62024 | 1036 ft | 101 kts | 68° |
| 2026-04-21 14:50 | 52.12046 | 7.63066 | 1013 ft | 100 kts | 69° |
| 2026-04-21 14:51 | 52.12357 | 7.64026 | 800 ft | 91 kts | 59° |
| 2026-04-21 14:51 | 52.12625 | 7.64974 | 551 ft | 93 kts | 66° |
| 2026-04-21 14:51 | 52.12870 | 7.65941 | 385 ft | 90 kts | 67° |
| 2026-04-21 14:51 | 52.13100 | 7.66865 | 221 ft | 83 kts | 70° |
| 2026-04-21 14:52 | 52.13258 | 7.67567 | 173 ft | 55 kts | 71° |
| 2026-04-21 14:52 | 52.13374 | 7.68121 | 162 ft | 64 kts | 73° |
| 2026-04-21 14:52 | 52.13667 | 7.68655 | 202 ft | 89 kts | 337° |
| 2026-04-21 14:52 | 52.15975 | 7.65773 | 643 ft | 1479 kts | 341° |
| 2026-04-21 14:53 | 52.17520 | 7.59352 | 3737 ft | 0 kts | 349° |
| 2026-04-21 14:53 | 52.21018 | 7.63580 | 4606 ft | 96 kts | 15° |
| 2026-04-21 14:53 | 52.21523 | 7.62786 | 4352 ft | 144 kts | 259° |
| 2026-04-21 14:53 | 52.19529 | 7.52163 | 4078 ft | 0 kts | 259° |
| 2026-04-21 14:54 | 52.19125 | 7.49571 | 4171 ft | 135 kts | 268° |
| 2026-04-21 14:54 | 52.18852 | 7.48073 | 4185 ft | 139 kts | 251° |
| 2026-04-21 14:54 | 52.18584 | 7.46610 | 4308 ft | 128 kts | 253° |
| 2026-04-21 14:54 | 52.18379 | 7.45344 | 1499 ft | 193 kts | 268° |
| 2026-04-21 14:55 | 52.18192 | 7.44499 | 300 ft | 156 kts | 66° |
| 2026-04-21 14:55 | 52.18687 | 7.45591 | 302 ft | 93 kts | 44° |
| 2026-04-21 14:55 | 52.18902 | 7.46378 | 215 ft | 69 kts | 84° |
| 2026-04-21 14:55 | 52.18964 | 7.46989 | 152 ft | 34 kts | 77° |
| 2026-04-21 14:56 | 52.19016 | 7.47206 | 153 ft | 13 kts | 64° |